sensor_id;sensor_type;location;lat;lon;timestamp;temperature;humidity
63966;DHT22;50151;52.030;5.350;2023-03-09T00:01:30;1.20;99.90
63966;DHT22;50151;52.030;5.350;2023-03-09T00:03:59;1.20;99.90
63966;DHT22;50151;52.030;5.350;2023-03-09T00:06:26;1.20;99.90
63966;DHT22;50151;52.030;5.350;2023-03-09T00:08:53;1.20;99.90
63966;DHT22;50151;52.030;5.350;2023-03-09T00:11:20;1.20;99.90
63966;DHT22;50151;52.030;5.350;2023-03-09T00:13:48;1.20;99.90
63966;DHT22;50151;52.030;5.350;2023-03-09T00:16:21;1.30;99.90
63966;DHT22;50151;52.030;5.350;2023-03-09T00:18:48;1.20;99.90
63966;DHT22;50151;52.030;5.350;2023-03-09T00:21:19;1.20;99.90
63966;DHT22;50151;52.030;5.350;2023-03-09T00:24:23;1.20;99.90
63966;DHT22;50151;52.030;5.350;2023-03-09T00:26:58;1.20;99.90
63966;DHT22;50151;52.030;5.350;2023-03-09T00:29:27;1.20;99.90
63966;DHT22;50151;52.030;5.350;2023-03-09T00:31:55;1.20;99.90
63966;DHT22;50151;52.030;5.350;2023-03-09T00:34:22;1.20;99.90
63966;DHT22;50151;52.030;5.350;2023-03-09T00:36:49;1.20;99.90
63966;DHT22;50151;52.030;5.350;2023-03-09T00:39:16;1.20;99.90
63966;DHT22;50151;52.030;5.350;2023-03-09T00:41:44;1.20;99.90
63966;DHT22;50151;52.030;5.350;2023-03-09T00:44:12;1.20;99.90
63966;DHT22;50151;52.030;5.350;2023-03-09T00:46:39;1.20;99.90
63966;DHT22;50151;52.030;5.350;2023-03-09T00:49:05;1.10;99.90
63966;DHT22;50151;52.030;5.350;2023-03-09T00:51:36;1.10;99.90
63966;DHT22;50151;52.030;5.350;2023-03-09T00:54:04;1.10;99.90
63966;DHT22;50151;52.030;5.350;2023-03-09T00:56:30;1.20;99.90
63966;DHT22;50151;52.030;5.350;2023-03-09T00:58:58;1.20;99.90
63966;DHT22;50151;52.030;5.350;2023-03-09T01:01:25;1.20;99.90
63966;DHT22;50151;52.030;5.350;2023-03-09T01:03:52;1.30;99.90
63966;DHT22;50151;52.030;5.350;2023-03-09T01:06:22;1.20;99.90
63966;DHT22;50151;52.030;5.350;2023-03-09T01:08:48;1.20;99.90
63966;DHT22;50151;52.030;5.350;2023-03-09T01:11:16;1.20;99.90
63966;DHT22;50151;52.030;5.350;2023-03-09T01:13:44;1.20;99.90
63966;DHT22;50151;52.030;5.350;2023-03-09T01:16:11;1.20;99.90
63966;DHT22;50151;52.030;5.350;2023-03-09T01:18:38;1.20;99.90
63966;DHT22;50151;52.030;5.350;2023-03-09T01:21:06;1.30;99.90
63966;DHT22;50151;52.030;5.350;2023-03-09T01:23:35;1.30;99.90
63966;DHT22;50151;52.030;5.350;2023-03-09T01:26:02;1.30;99.90
63966;DHT22;50151;52.030;5.350;2023-03-09T01:28:28;1.20;99.90
63966;DHT22;50151;52.030;5.350;2023-03-09T01:30:55;1.20;99.90
63966;DHT22;50151;52.030;5.350;2023-03-09T01:33:22;1.20;99.90
63966;DHT22;50151;52.030;5.350;2023-03-09T01:35:49;1.30;99.90
63966;DHT22;50151;52.030;5.350;2023-03-09T01:38:15;1.30;99.90
63966;DHT22;50151;52.030;5.350;2023-03-09T01:40:45;1.20;99.90
63966;DHT22;50151;52.030;5.350;2023-03-09T01:43:58;1.20;99.90
63966;DHT22;50151;52.030;5.350;2023-03-09T01:48:53;1.20;99.90
63966;DHT22;50151;52.030;5.350;2023-03-09T01:51:22;1.30;99.90
63966;DHT22;50151;52.030;5.350;2023-03-09T01:53:51;1.20;99.90
63966;DHT22;50151;52.030;5.350;2023-03-09T01:56:19;1.30;99.90
63966;DHT22;50151;52.030;5.350;2023-03-09T01:58:49;1.30;99.90
63966;DHT22;50151;52.030;5.350;2023-03-09T02:01:17;1.30;99.90
63966;DHT22;50151;52.030;5.350;2023-03-09T02:03:48;1.20;99.90
63966;DHT22;50151;52.030;5.350;2023-03-09T02:06:17;1.30;99.90
63966;DHT22;50151;52.030;5.350;2023-03-09T02:11:21;1.30;99.90
63966;DHT22;50151;52.030;5.350;2023-03-09T02:13:51;1.30;99.90
63966;DHT22;50151;52.030;5.350;2023-03-09T02:16:18;1.30;99.90
63966;DHT22;50151;52.030;5.350;2023-03-09T02:18:44;1.30;99.90
63966;DHT22;50151;52.030;5.350;2023-03-09T02:24:18;1.20;99.90
63966;DHT22;50151;52.030;5.350;2023-03-09T02:26:59;1.30;99.90
63966;DHT22;50151;52.030;5.350;2023-03-09T02:29:26;1.20;99.90
63966;DHT22;50151;52.030;5.350;2023-03-09T02:31:54;1.30;99.90
63966;DHT22;50151;52.030;5.350;2023-03-09T02:34:21;1.30;99.90
63966;DHT22;50151;52.030;5.350;2023-03-09T02:36:47;1.20;99.90
63966;DHT22;50151;52.030;5.350;2023-03-09T02:41:45;1.30;99.90
63966;DHT22;50151;52.030;5.350;2023-03-09T02:44:12;1.30;99.90
63966;DHT22;50151;52.030;5.350;2023-03-09T02:46:40;1.30;99.90
63966;DHT22;50151;52.030;5.350;2023-03-09T02:49:07;1.30;99.90
63966;DHT22;50151;52.030;5.350;2023-03-09T02:51:33;1.30;99.90
63966;DHT22;50151;52.030;5.350;2023-03-09T02:54:00;1.30;99.90
63966;DHT22;50151;52.030;5.350;2023-03-09T02:56:26;1.30;99.90
63966;DHT22;50151;52.030;5.350;2023-03-09T02:58:53;1.30;99.90
63966;DHT22;50151;52.030;5.350;2023-03-09T03:01:20;1.30;99.90
63966;DHT22;50151;52.030;5.350;2023-03-09T03:03:47;1.30;99.90
63966;DHT22;50151;52.030;5.350;2023-03-09T03:06:13;1.30;99.90
63966;DHT22;50151;52.030;5.350;2023-03-09T03:08:40;1.30;99.90
63966;DHT22;50151;52.030;5.350;2023-03-09T03:11:07;1.30;99.90
63966;DHT22;50151;52.030;5.350;2023-03-09T03:13:33;1.30;99.90
63966;DHT22;50151;52.030;5.350;2023-03-09T03:16:01;1.30;99.90
63966;DHT22;50151;52.030;5.350;2023-03-09T03:18:28;1.30;99.90
63966;DHT22;50151;52.030;5.350;2023-03-09T03:20:55;1.30;99.90
63966;DHT22;50151;52.030;5.350;2023-03-09T03:23:21;1.30;99.90
63966;DHT22;50151;52.030;5.350;2023-03-09T03:25:48;1.30;99.90
63966;DHT22;50151;52.030;5.350;2023-03-09T03:28:15;1.30;99.90
63966;DHT22;50151;52.030;5.350;2023-03-09T03:30:42;1.30;99.90
63966;DHT22;50151;52.030;5.350;2023-03-09T03:33:08;1.30;99.90
63966;DHT22;50151;52.030;5.350;2023-03-09T03:35:35;1.30;99.90
63966;DHT22;50151;52.030;5.350;2023-03-09T03:38:02;1.30;99.90
63966;DHT22;50151;52.030;5.350;2023-03-09T03:40:28;1.30;99.90
63966;DHT22;50151;52.030;5.350;2023-03-09T03:42:55;1.30;99.90
63966;DHT22;50151;52.030;5.350;2023-03-09T03:45:22;1.40;99.90
63966;DHT22;50151;52.030;5.350;2023-03-09T03:47:48;1.40;99.90
63966;DHT22;50151;52.030;5.350;2023-03-09T03:50:15;1.30;99.90
63966;DHT22;50151;52.030;5.350;2023-03-09T03:52:42;1.30;99.90
63966;DHT22;50151;52.030;5.350;2023-03-09T03:55:09;1.30;99.90
63966;DHT22;50151;52.030;5.350;2023-03-09T03:57:36;1.30;99.90
63966;DHT22;50151;52.030;5.350;2023-03-09T04:00:03;1.40;99.90
63966;DHT22;50151;52.030;5.350;2023-03-09T04:02:37;1.40;99.90
63966;DHT22;50151;52.030;5.350;2023-03-09T04:05:04;1.40;99.90
63966;DHT22;50151;52.030;5.350;2023-03-09T04:07:31;1.30;99.90
63966;DHT22;50151;52.030;5.350;2023-03-09T04:09:57;1.30;99.90
63966;DHT22;50151;52.030;5.350;2023-03-09T04:12:24;1.40;99.90
63966;DHT22;50151;52.030;5.350;2023-03-09T04:14:50;1.40;99.90
63966;DHT22;50151;52.030;5.350;2023-03-09T04:17:17;1.40;99.90
63966;DHT22;50151;52.030;5.350;2023-03-09T04:19:44;1.30;99.90
63966;DHT22;50151;52.030;5.350;2023-03-09T04:22:11;1.30;99.90
63966;DHT22;50151;52.030;5.350;2023-03-09T04:24:37;1.30;99.90
63966;DHT22;50151;52.030;5.350;2023-03-09T04:27:04;1.40;99.90
63966;DHT22;50151;52.030;5.350;2023-03-09T04:29:31;1.40;99.90
63966;DHT22;50151;52.030;5.350;2023-03-09T04:31:57;1.30;99.90
63966;DHT22;50151;52.030;5.350;2023-03-09T04:34:24;1.40;99.90
63966;DHT22;50151;52.030;5.350;2023-03-09T04:36:51;1.40;99.90
63966;DHT22;50151;52.030;5.350;2023-03-09T04:39:17;1.40;99.90
63966;DHT22;50151;52.030;5.350;2023-03-09T04:41:44;1.40;99.90
63966;DHT22;50151;52.030;5.350;2023-03-09T04:44:11;1.40;99.90
63966;DHT22;50151;52.030;5.350;2023-03-09T04:46:37;1.40;99.90
63966;DHT22;50151;52.030;5.350;2023-03-09T04:49:04;1.40;99.90
63966;DHT22;50151;52.030;5.350;2023-03-09T04:51:31;1.40;99.90
63966;DHT22;50151;52.030;5.350;2023-03-09T04:53:58;1.40;99.90
63966;DHT22;50151;52.030;5.350;2023-03-09T04:56:24;1.40;99.90
63966;DHT22;50151;52.030;5.350;2023-03-09T04:58:51;1.40;99.90
63966;DHT22;50151;52.030;5.350;2023-03-09T05:01:18;1.40;99.90
63966;DHT22;50151;52.030;5.350;2023-03-09T05:03:45;1.40;99.90
63966;DHT22;50151;52.030;5.350;2023-03-09T05:06:11;1.40;99.90
63966;DHT22;50151;52.030;5.350;2023-03-09T05:08:38;1.40;99.90
63966;DHT22;50151;52.030;5.350;2023-03-09T05:11:05;1.40;99.90
63966;DHT22;50151;52.030;5.350;2023-03-09T05:13:31;1.40;99.90
63966;DHT22;50151;52.030;5.350;2023-03-09T05:15:58;1.30;99.90
63966;DHT22;50151;52.030;5.350;2023-03-09T05:18:25;1.30;99.90
63966;DHT22;50151;52.030;5.350;2023-03-09T05:20:51;1.30;99.90
63966;DHT22;50151;52.030;5.350;2023-03-09T05:23:18;1.40;99.90
63966;DHT22;50151;52.030;5.350;2023-03-09T05:25:55;1.40;99.90
63966;DHT22;50151;52.030;5.350;2023-03-09T05:28:23;1.40;99.90
63966;DHT22;50151;52.030;5.350;2023-03-09T05:30:50;1.40;99.90
63966;DHT22;50151;52.030;5.350;2023-03-09T05:33:17;1.40;99.90
63966;DHT22;50151;52.030;5.350;2023-03-09T05:35:44;1.40;99.90
63966;DHT22;50151;52.030;5.350;2023-03-09T05:38:11;1.40;99.90
63966;DHT22;50151;52.030;5.350;2023-03-09T05:40:38;1.40;99.90
63966;DHT22;50151;52.030;5.350;2023-03-09T05:43:04;1.40;99.90
63966;DHT22;50151;52.030;5.350;2023-03-09T05:45:31;1.40;99.90
63966;DHT22;50151;52.030;5.350;2023-03-09T05:47:57;1.40;99.90
63966;DHT22;50151;52.030;5.350;2023-03-09T05:50:24;1.40;99.90
63966;DHT22;50151;52.030;5.350;2023-03-09T05:52:51;1.40;99.90
63966;DHT22;50151;52.030;5.350;2023-03-09T05:55:17;1.30;99.90
63966;DHT22;50151;52.030;5.350;2023-03-09T05:57:44;1.40;99.90
63966;DHT22;50151;52.030;5.350;2023-03-09T06:00:11;1.40;99.90
63966;DHT22;50151;52.030;5.350;2023-03-09T06:02:38;1.40;99.90
63966;DHT22;50151;52.030;5.350;2023-03-09T06:05:05;1.40;99.90
63966;DHT22;50151;52.030;5.350;2023-03-09T06:07:32;1.40;99.90
63966;DHT22;50151;52.030;5.350;2023-03-09T06:09:58;1.40;99.90
63966;DHT22;50151;52.030;5.350;2023-03-09T06:12:26;1.40;99.90
63966;DHT22;50151;52.030;5.350;2023-03-09T06:14:52;1.40;99.90
63966;DHT22;50151;52.030;5.350;2023-03-09T06:17:19;1.40;99.90
63966;DHT22;50151;52.030;5.350;2023-03-09T06:19:46;1.40;99.90
63966;DHT22;50151;52.030;5.350;2023-03-09T06:22:13;1.40;99.90
63966;DHT22;50151;52.030;5.350;2023-03-09T06:24:39;1.40;99.90
63966;DHT22;50151;52.030;5.350;2023-03-09T06:27:06;1.50;99.90
63966;DHT22;50151;52.030;5.350;2023-03-09T06:29:33;1.50;99.90
63966;DHT22;50151;52.030;5.350;2023-03-09T06:31:59;1.50;99.90
63966;DHT22;50151;52.030;5.350;2023-03-09T06:34:29;1.50;99.90
63966;DHT22;50151;52.030;5.350;2023-03-09T06:36:56;1.50;99.90
63966;DHT22;50151;52.030;5.350;2023-03-09T06:39:22;1.60;99.90
63966;DHT22;50151;52.030;5.350;2023-03-09T06:41:49;1.50;99.90
63966;DHT22;50151;52.030;5.350;2023-03-09T06:44:16;1.50;99.90
63966;DHT22;50151;52.030;5.350;2023-03-09T06:46:43;1.50;99.90
63966;DHT22;50151;52.030;5.350;2023-03-09T06:49:09;1.50;99.90
63966;DHT22;50151;52.030;5.350;2023-03-09T06:51:36;1.50;99.90
63966;DHT22;50151;52.030;5.350;2023-03-09T06:54:03;1.50;99.90
63966;DHT22;50151;52.030;5.350;2023-03-09T06:56:30;1.50;99.90
63966;DHT22;50151;52.030;5.350;2023-03-09T06:58:56;1.50;99.90
63966;DHT22;50151;52.030;5.350;2023-03-09T07:01:23;1.60;99.90
63966;DHT22;50151;52.030;5.350;2023-03-09T07:03:50;1.60;99.90
63966;DHT22;50151;52.030;5.350;2023-03-09T07:06:17;1.60;99.90
63966;DHT22;50151;52.030;5.350;2023-03-09T07:08:43;1.70;99.90
63966;DHT22;50151;52.030;5.350;2023-03-09T07:11:10;1.60;99.90
63966;DHT22;50151;52.030;5.350;2023-03-09T07:13:36;1.70;99.90
63966;DHT22;50151;52.030;5.350;2023-03-09T07:16:04;1.70;99.90
63966;DHT22;50151;52.030;5.350;2023-03-09T07:18:32;1.70;99.90
63966;DHT22;50151;52.030;5.350;2023-03-09T07:21:00;1.70;99.90
63966;DHT22;50151;52.030;5.350;2023-03-09T07:23:30;1.80;99.90
63966;DHT22;50151;52.030;5.350;2023-03-09T07:25:59;1.80;99.90
63966;DHT22;50151;52.030;5.350;2023-03-09T07:28:27;1.80;99.90
63966;DHT22;50151;52.030;5.350;2023-03-09T07:30:54;1.80;99.90
63966;DHT22;50151;52.030;5.350;2023-03-09T07:33:20;1.90;99.90
63966;DHT22;50151;52.030;5.350;2023-03-09T07:35:47;1.90;99.90
63966;DHT22;50151;52.030;5.350;2023-03-09T07:38:14;1.90;99.90
63966;DHT22;50151;52.030;5.350;2023-03-09T07:40:41;1.90;99.90
63966;DHT22;50151;52.030;5.350;2023-03-09T07:43:10;1.90;99.90
63966;DHT22;50151;52.030;5.350;2023-03-09T07:45:39;2.00;99.90
63966;DHT22;50151;52.030;5.350;2023-03-09T07:48:06;2.10;99.90
63966;DHT22;50151;52.030;5.350;2023-03-09T07:50:34;2.10;99.90
63966;DHT22;50151;52.030;5.350;2023-03-09T07:53:01;2.10;99.90
63966;DHT22;50151;52.030;5.350;2023-03-09T07:55:28;2.00;99.90
63966;DHT22;50151;52.030;5.350;2023-03-09T07:57:56;2.10;99.90
63966;DHT22;50151;52.030;5.350;2023-03-09T08:00:23;2.10;99.90
63966;DHT22;50151;52.030;5.350;2023-03-09T08:02:50;2.20;99.90
63966;DHT22;50151;52.030;5.350;2023-03-09T08:05:18;2.20;99.90
63966;DHT22;50151;52.030;5.350;2023-03-09T08:07:45;2.20;99.90
63966;DHT22;50151;52.030;5.350;2023-03-09T08:10:15;2.20;99.90
63966;DHT22;50151;52.030;5.350;2023-03-09T08:12:46;2.20;99.90
63966;DHT22;50151;52.030;5.350;2023-03-09T08:15:12;2.30;99.90
63966;DHT22;50151;52.030;5.350;2023-03-09T08:17:39;2.30;99.90
63966;DHT22;50151;52.030;5.350;2023-03-09T08:20:07;2.30;99.90
63966;DHT22;50151;52.030;5.350;2023-03-09T08:22:37;2.40;99.90
63966;DHT22;50151;52.030;5.350;2023-03-09T08:25:05;2.40;99.90
63966;DHT22;50151;52.030;5.350;2023-03-09T08:27:44;2.30;99.90
63966;DHT22;50151;52.030;5.350;2023-03-09T08:30:13;2.30;99.90
63966;DHT22;50151;52.030;5.350;2023-03-09T08:32:40;2.40;99.90
63966;DHT22;50151;52.030;5.350;2023-03-09T08:35:08;2.40;99.90
63966;DHT22;50151;52.030;5.350;2023-03-09T08:37:35;2.40;99.90
63966;DHT22;50151;52.030;5.350;2023-03-09T08:40:02;2.50;99.90
63966;DHT22;50151;52.030;5.350;2023-03-09T08:42:28;2.50;99.90
63966;DHT22;50151;52.030;5.350;2023-03-09T08:44:55;2.50;99.90
63966;DHT22;50151;52.030;5.350;2023-03-09T08:47:22;2.60;99.90
63966;DHT22;50151;52.030;5.350;2023-03-09T08:49:48;2.50;99.90
63966;DHT22;50151;52.030;5.350;2023-03-09T08:52:15;2.50;99.90
63966;DHT22;50151;52.030;5.350;2023-03-09T08:54:42;2.60;99.90
63966;DHT22;50151;52.030;5.350;2023-03-09T08:57:09;2.60;99.90
63966;DHT22;50151;52.030;5.350;2023-03-09T08:59:36;2.60;99.90
63966;DHT22;50151;52.030;5.350;2023-03-09T09:02:03;2.60;99.90
63966;DHT22;50151;52.030;5.350;2023-03-09T09:04:30;2.70;99.90
63966;DHT22;50151;52.030;5.350;2023-03-09T09:06:57;2.70;99.90
63966;DHT22;50151;52.030;5.350;2023-03-09T09:09:24;2.60;99.90
63966;DHT22;50151;52.030;5.350;2023-03-09T09:11:50;2.70;99.90
63966;DHT22;50151;52.030;5.350;2023-03-09T09:14:17;2.70;99.90
63966;DHT22;50151;52.030;5.350;2023-03-09T09:16:44;2.80;99.90
63966;DHT22;50151;52.030;5.350;2023-03-09T09:19:12;2.80;99.90
63966;DHT22;50151;52.030;5.350;2023-03-09T09:21:38;2.80;99.90
63966;DHT22;50151;52.030;5.350;2023-03-09T09:24:05;2.90;99.90
63966;DHT22;50151;52.030;5.350;2023-03-09T09:26:32;2.90;99.90
63966;DHT22;50151;52.030;5.350;2023-03-09T09:28:59;2.90;99.90
63966;DHT22;50151;52.030;5.350;2023-03-09T09:31:28;2.90;99.90
63966;DHT22;50151;52.030;5.350;2023-03-09T09:33:55;3.00;99.90
63966;DHT22;50151;52.030;5.350;2023-03-09T09:36:23;3.00;99.90
63966;DHT22;50151;52.030;5.350;2023-03-09T09:38:52;3.00;99.90
63966;DHT22;50151;52.030;5.350;2023-03-09T09:43:56;3.00;99.90
63966;DHT22;50151;52.030;5.350;2023-03-09T09:46:26;3.00;99.90
63966;DHT22;50151;52.030;5.350;2023-03-09T09:48:55;3.00;99.90
63966;DHT22;50151;52.030;5.350;2023-03-09T09:51:44;3.10;99.90
63966;DHT22;50151;52.030;5.350;2023-03-09T09:54:36;3.20;99.90
63966;DHT22;50151;52.030;5.350;2023-03-09T09:57:13;3.20;99.90
63966;DHT22;50151;52.030;5.350;2023-03-09T09:59:51;3.20;99.90
63966;DHT22;50151;52.030;5.350;2023-03-09T10:02:22;3.30;99.90
63966;DHT22;50151;52.030;5.350;2023-03-09T10:05:10;3.20;99.90
63966;DHT22;50151;52.030;5.350;2023-03-09T10:07:38;3.20;99.90
63966;DHT22;50151;52.030;5.350;2023-03-09T10:10:11;3.20;99.90
63966;DHT22;50151;52.030;5.350;2023-03-09T10:12:40;3.30;99.90
63966;DHT22;50151;52.030;5.350;2023-03-09T10:15:14;3.30;99.90
63966;DHT22;50151;52.030;5.350;2023-03-09T10:17:50;3.30;99.90
63966;DHT22;50151;52.030;5.350;2023-03-09T10:20:39;3.40;99.90
63966;DHT22;50151;52.030;5.350;2023-03-09T10:23:42;3.40;99.90
63966;DHT22;50151;52.030;5.350;2023-03-09T10:26:38;3.40;99.90
63966;DHT22;50151;52.030;5.350;2023-03-09T10:29:38;3.50;99.90
63966;DHT22;50151;52.030;5.350;2023-03-09T10:32:20;3.60;99.90
63966;DHT22;50151;52.030;5.350;2023-03-09T10:35:03;3.60;99.90
63966;DHT22;50151;52.030;5.350;2023-03-09T10:37:34;3.70;99.90
63966;DHT22;50151;52.030;5.350;2023-03-09T10:40:14;3.70;99.90
63966;DHT22;50151;52.030;5.350;2023-03-09T10:42:43;3.70;99.90
63966;DHT22;50151;52.030;5.350;2023-03-09T10:47:50;3.60;99.90
63966;DHT22;50151;52.030;5.350;2023-03-09T10:50:18;3.50;99.90
63966;DHT22;50151;52.030;5.350;2023-03-09T10:52:53;3.60;99.90
63966;DHT22;50151;52.030;5.350;2023-03-09T10:58:17;3.60;99.90
63966;DHT22;50151;52.030;5.350;2023-03-09T11:03:40;3.70;99.90
63966;DHT22;50151;52.030;5.350;2023-03-09T11:06:09;3.60;99.90
63966;DHT22;50151;52.030;5.350;2023-03-09T11:08:36;3.70;99.90
63966;DHT22;50151;52.030;5.350;2023-03-09T11:11:26;3.70;99.90
63966;DHT22;50151;52.030;5.350;2023-03-09T11:13:53;3.70;99.90
63966;DHT22;50151;52.030;5.350;2023-03-09T11:16:26;3.80;99.90
63966;DHT22;50151;52.030;5.350;2023-03-09T11:19:14;3.70;99.90
63966;DHT22;50151;52.030;5.350;2023-03-09T11:22:09;3.80;99.90
63966;DHT22;50151;52.030;5.350;2023-03-09T11:24:44;3.70;99.90
63966;DHT22;50151;52.030;5.350;2023-03-09T11:27:27;3.70;99.90
63966;DHT22;50151;52.030;5.350;2023-03-09T11:30:16;3.60;99.90
63966;DHT22;50151;52.030;5.350;2023-03-09T11:32:43;3.60;99.90
63966;DHT22;50151;52.030;5.350;2023-03-09T11:35:15;3.60;99.90
63966;DHT22;50151;52.030;5.350;2023-03-09T11:37:49;3.60;99.90
63966;DHT22;50151;52.030;5.350;2023-03-09T11:40:19;3.70;99.90
63966;DHT22;50151;52.030;5.350;2023-03-09T11:45:22;3.50;99.90
63966;DHT22;50151;52.030;5.350;2023-03-09T11:47:58;3.50;99.90
63966;DHT22;50151;52.030;5.350;2023-03-09T11:50:36;3.60;99.90
63966;DHT22;50151;52.030;5.350;2023-03-09T11:53:24;3.70;99.90
63966;DHT22;50151;52.030;5.350;2023-03-09T11:56:26;3.70;99.90
63966;DHT22;50151;52.030;5.350;2023-03-09T11:59:12;3.60;99.90
63966;DHT22;50151;52.030;5.350;2023-03-09T12:04:16;3.60;99.90
63966;DHT22;50151;52.030;5.350;2023-03-09T12:06:49;3.50;99.90
63966;DHT22;50151;52.030;5.350;2023-03-09T12:12:58;3.60;99.90
63966;DHT22;50151;52.030;5.350;2023-03-09T12:16:18;3.70;99.90
63966;DHT22;50151;52.030;5.350;2023-03-09T12:18:32;3.70;99.90
63966;DHT22;50151;52.030;5.350;2023-03-09T12:21:04;3.50;99.90
63966;DHT22;50151;52.030;5.350;2023-03-09T12:28:33;3.50;99.90
63966;DHT22;50151;52.030;5.350;2023-03-09T12:31:00;3.50;99.90
63966;DHT22;50151;52.030;5.350;2023-03-09T12:36:42;3.50;99.90
63966;DHT22;50151;52.030;5.350;2023-03-09T12:49:48;3.40;99.90
63966;DHT22;50151;52.030;5.350;2023-03-09T12:54:57;3.30;99.90
63966;DHT22;50151;52.030;5.350;2023-03-09T12:57:24;3.30;99.90
63966;DHT22;50151;52.030;5.350;2023-03-09T12:59:51;3.30;99.90
63966;DHT22;50151;52.030;5.350;2023-03-09T13:05:23;3.30;99.90
63966;DHT22;50151;52.030;5.350;2023-03-09T13:08:33;3.30;99.90
63966;DHT22;50151;52.030;5.350;2023-03-09T13:11:37;3.30;99.90
63966;DHT22;50151;52.030;5.350;2023-03-09T13:14:13;3.20;99.90
63966;DHT22;50151;52.030;5.350;2023-03-09T13:32:55;3.20;99.90
63966;DHT22;50151;52.030;5.350;2023-03-09T13:35:35;3.30;99.90
63966;DHT22;50151;52.030;5.350;2023-03-09T13:38:04;3.30;99.90
63966;DHT22;50151;52.030;5.350;2023-03-09T13:40:48;3.30;99.90
63966;DHT22;50151;52.030;5.350;2023-03-09T13:43:19;3.40;99.90
63966;DHT22;50151;52.030;5.350;2023-03-09T13:46:22;3.30;99.90
63966;DHT22;50151;52.030;5.350;2023-03-09T13:48:51;3.40;99.90
63966;DHT22;50151;52.030;5.350;2023-03-09T13:51:29;3.40;99.90
63966;DHT22;50151;52.030;5.350;2023-03-09T13:53:58;3.40;99.90
63966;DHT22;50151;52.030;5.350;2023-03-09T13:56:24;3.40;99.90
63966;DHT22;50151;52.030;5.350;2023-03-09T13:58:53;3.30;99.90
63966;DHT22;50151;52.030;5.350;2023-03-09T14:01:25;3.30;99.90
63966;DHT22;50151;52.030;5.350;2023-03-09T14:03:54;3.30;99.90
63966;DHT22;50151;52.030;5.350;2023-03-09T14:06:42;3.30;99.90
63966;DHT22;50151;52.030;5.350;2023-03-09T14:09:50;3.30;99.90
63966;DHT22;50151;52.030;5.350;2023-03-09T14:12:27;3.40;99.90
63966;DHT22;50151;52.030;5.350;2023-03-09T14:14:58;3.40;99.90
63966;DHT22;50151;52.030;5.350;2023-03-09T14:17:26;3.40;99.90
63966;DHT22;50151;52.030;5.350;2023-03-09T14:19:54;3.40;99.90
63966;DHT22;50151;52.030;5.350;2023-03-09T14:22:28;3.40;99.90
63966;DHT22;50151;52.030;5.350;2023-03-09T14:24:55;3.30;99.90
63966;DHT22;50151;52.030;5.350;2023-03-09T14:27:33;3.40;99.90
63966;DHT22;50151;52.030;5.350;2023-03-09T14:33:04;3.40;99.90
63966;DHT22;50151;52.030;5.350;2023-03-09T14:35:35;3.50;99.90
63966;DHT22;50151;52.030;5.350;2023-03-09T14:38:22;3.50;99.90
63966;DHT22;50151;52.030;5.350;2023-03-09T14:40:59;3.40;99.90
63966;DHT22;50151;52.030;5.350;2023-03-09T14:43:40;3.50;99.90
63966;DHT22;50151;52.030;5.350;2023-03-09T14:46:18;3.50;99.90
63966;DHT22;50151;52.030;5.350;2023-03-09T14:48:51;3.60;99.90
63966;DHT22;50151;52.030;5.350;2023-03-09T14:51:22;3.50;99.90
63966;DHT22;50151;52.030;5.350;2023-03-09T14:54:00;3.50;99.90
63966;DHT22;50151;52.030;5.350;2023-03-09T14:56:29;3.50;99.90
63966;DHT22;50151;52.030;5.350;2023-03-09T14:58:59;3.60;99.90
63966;DHT22;50151;52.030;5.350;2023-03-09T15:01:29;3.50;99.90
63966;DHT22;50151;52.030;5.350;2023-03-09T15:03:56;3.50;99.90
63966;DHT22;50151;52.030;5.350;2023-03-09T15:06:25;3.50;99.90
63966;DHT22;50151;52.030;5.350;2023-03-09T15:08:52;3.50;99.90
63966;DHT22;50151;52.030;5.350;2023-03-09T15:11:21;3.60;99.90
63966;DHT22;50151;52.030;5.350;2023-03-09T15:13:48;3.60;99.90
63966;DHT22;50151;52.030;5.350;2023-03-09T15:16:15;3.50;99.90
63966;DHT22;50151;52.030;5.350;2023-03-09T15:18:42;3.50;99.90
63966;DHT22;50151;52.030;5.350;2023-03-09T15:21:08;3.60;99.90
63966;DHT22;50151;52.030;5.350;2023-03-09T15:23:35;3.40;99.90
63966;DHT22;50151;52.030;5.350;2023-03-09T15:26:04;3.30;99.90
63966;DHT22;50151;52.030;5.350;2023-03-09T15:28:31;3.30;99.90
63966;DHT22;50151;52.030;5.350;2023-03-09T15:30:58;3.40;99.90
63966;DHT22;50151;52.030;5.350;2023-03-09T15:33:27;3.40;99.90
63966;DHT22;50151;52.030;5.350;2023-03-09T15:35:54;3.40;99.90
63966;DHT22;50151;52.030;5.350;2023-03-09T15:38:21;3.40;99.90
63966;DHT22;50151;52.030;5.350;2023-03-09T15:40:47;3.40;99.90
63966;DHT22;50151;52.030;5.350;2023-03-09T15:43:15;3.30;99.90
63966;DHT22;50151;52.030;5.350;2023-03-09T15:45:43;3.30;99.90
63966;DHT22;50151;52.030;5.350;2023-03-09T15:48:10;3.30;99.90
63966;DHT22;50151;52.030;5.350;2023-03-09T15:50:37;3.30;99.90
63966;DHT22;50151;52.030;5.350;2023-03-09T15:53:07;3.20;99.90
63966;DHT22;50151;52.030;5.350;2023-03-09T15:55:39;3.30;99.90
63966;DHT22;50151;52.030;5.350;2023-03-09T15:58:10;3.30;99.90
63966;DHT22;50151;52.030;5.350;2023-03-09T16:00:37;3.30;99.90
63966;DHT22;50151;52.030;5.350;2023-03-09T16:03:04;3.20;99.90
63966;DHT22;50151;52.030;5.350;2023-03-09T16:05:31;3.30;99.90
63966;DHT22;50151;52.030;5.350;2023-03-09T16:07:57;3.30;99.90
63966;DHT22;50151;52.030;5.350;2023-03-09T16:10:25;3.30;99.90
63966;DHT22;50151;52.030;5.350;2023-03-09T16:12:52;3.30;99.90
63966;DHT22;50151;52.030;5.350;2023-03-09T16:15:20;3.30;99.90
63966;DHT22;50151;52.030;5.350;2023-03-09T16:17:47;3.30;99.90
63966;DHT22;50151;52.030;5.350;2023-03-09T16:20:14;3.30;99.90
63966;DHT22;50151;52.030;5.350;2023-03-09T16:22:48;3.30;99.90
63966;DHT22;50151;52.030;5.350;2023-03-09T16:25:16;3.30;99.90
63966;DHT22;50151;52.030;5.350;2023-03-09T16:27:43;3.20;99.90
63966;DHT22;50151;52.030;5.350;2023-03-09T16:30:12;3.30;99.90
63966;DHT22;50151;52.030;5.350;2023-03-09T16:32:39;3.30;99.90
63966;DHT22;50151;52.030;5.350;2023-03-09T16:35:08;3.30;99.90
63966;DHT22;50151;52.030;5.350;2023-03-09T16:37:35;3.40;99.90
63966;DHT22;50151;52.030;5.350;2023-03-09T16:40:04;3.30;99.90
63966;DHT22;50151;52.030;5.350;2023-03-09T16:42:31;3.20;99.90
63966;DHT22;50151;52.030;5.350;2023-03-09T16:44:58;3.30;99.90
63966;DHT22;50151;52.030;5.350;2023-03-09T16:47:25;3.20;99.90
63966;DHT22;50151;52.030;5.350;2023-03-09T16:50:00;3.20;99.90
63966;DHT22;50151;52.030;5.350;2023-03-09T16:52:27;3.30;99.90
63966;DHT22;50151;52.030;5.350;2023-03-09T16:55:00;3.30;99.90
63966;DHT22;50151;52.030;5.350;2023-03-09T16:57:27;3.20;99.90
63966;DHT22;50151;52.030;5.350;2023-03-09T16:59:56;3.30;99.90
63966;DHT22;50151;52.030;5.350;2023-03-09T17:02:24;3.20;99.90
63966;DHT22;50151;52.030;5.350;2023-03-09T17:04:59;3.20;99.90
63966;DHT22;50151;52.030;5.350;2023-03-09T17:07:29;3.20;99.90
63966;DHT22;50151;52.030;5.350;2023-03-09T17:09:55;3.20;99.90
63966;DHT22;50151;52.030;5.350;2023-03-09T17:12:22;3.20;99.90
63966;DHT22;50151;52.030;5.350;2023-03-09T17:14:51;3.20;99.90
63966;DHT22;50151;52.030;5.350;2023-03-09T17:17:18;3.10;99.90